CheckWX is a tool to help pilots better visualize weather data.  It is not intended as a substitute for an official pre-flight weather briefing.

05:13:32 UTC

CYEK METAR
Arviat Airport
Arviat, Canada
Current

14 mins ago

CYEK 240500Z AUTO 33024G29KT 5/8SM -SN BLSN VV013 M30/M34 A3022 RMK SLP237
Observed
Feb-24 @ 05:00 UTC
Wind
  • 330° at 24 KTS
  • Gusting to 29 KTS
Visibility
63 SM
Flight Rules
LIFR
Conditions
Light Snow, Blowing Snow
Cloud Levels
  • Vertical visibility at 1,300' AGL
Temperature
-30°C / -22°F
Dewpoint
-34°C / -29°F
Humidity
68%
Altimeter
30.22" Hg
Pressure
1023.7 hPa
Previous

1 hour ago

CYEK 240400Z AUTO 34024G29KT 3/4SM -SN BLSN FEW004 BKN015 M28/M31 A3021 RMK SLP234
Observed
Feb-24 @ 04:00 UTC
Wind
  • 340° at 24 KTS
  • Gusting to 29 KTS
Visibility
3/4 SM
Flight Rules
LIFR
Conditions
Light Snow, Blowing Snow
Cloud Levels
  • Few at 400' AGL
  • Broken at 1,500' AGL
Temperature
-28°C / -18°F
Dewpoint
-31°C / -24°F
Humidity
75%
Altimeter
30.21" Hg
Pressure
1023.4 hPa
Previous

1 hour ago

CYEK 240356Z AUTO 34025KT 3/4SM BLSN FEW004 BKN009 M28/M31 A3021 RMK SLP233
Observed
Feb-24 @ 03:56 UTC
Wind
  • 340° at 25 KTS
Visibility
3/4 SM
Flight Rules
LIFR
Conditions
Blowing Snow
Cloud Levels
  • Few at 400' AGL
  • Broken at 900' AGL
Temperature
-28°C / -18°F
Dewpoint
-31°C / -24°F
Humidity
75%
Altimeter
30.21" Hg
Pressure
1023.3 hPa